sensor_id;sensor_type;location;lat;lon;timestamp;pressure;altitude;pressure_sealevel;temperature;humidity
64908;BME280;64365;-1.756;110.040;2023-03-26T00:00:06;100640.13;;;10.37;87.00
64908;BME280;64365;-1.756;110.040;2023-03-26T00:02:39;100647.69;;;10.35;87.38
64908;BME280;64365;-1.756;110.040;2023-03-26T00:05:07;100651.47;;;10.34;87.46
64908;BME280;64365;-1.756;110.040;2023-03-26T00:07:34;100651.41;;;10.30;87.03
64908;BME280;64365;-1.756;110.040;2023-03-26T00:10:01;100646.84;;;10.31;86.43
64908;BME280;64365;-1.756;110.040;2023-03-26T00:12:27;100642.66;;;10.26;86.16
64908;BME280;64365;-1.756;110.040;2023-03-26T00:14:54;100633.16;;;10.25;86.19
64908;BME280;64365;-1.756;110.040;2023-03-26T00:17:22;100634.63;;;10.22;88.70
64908;BME280;64365;-1.756;110.040;2023-03-26T00:19:49;100637.72;;;10.28;89.33
64908;BME280;64365;-1.756;110.040;2023-03-26T00:22:18;100641.16;;;10.28;87.89
64908;BME280;64365;-1.756;110.040;2023-03-26T00:24:44;100636.94;;;10.24;87.78
64908;BME280;64365;-1.756;110.040;2023-03-26T00:27:13;100631.97;;;10.22;87.73
64908;BME280;64365;-1.756;110.040;2023-03-26T00:29:40;100633.09;;;10.21;87.20
64908;BME280;64365;-1.756;110.040;2023-03-26T00:32:06;100633.09;;;10.18;87.49
64908;BME280;64365;-1.756;110.040;2023-03-26T00:34:34;100641.06;;;10.18;87.27
64908;BME280;64365;-1.756;110.040;2023-03-26T00:37:00;100639.47;;;10.13;87.28
64908;BME280;64365;-1.756;110.040;2023-03-26T00:39:28;100637.19;;;10.11;87.92
64908;BME280;64365;-1.756;110.040;2023-03-26T00:41:59;100631.81;;;10.08;87.56
64908;BME280;64365;-1.756;110.040;2023-03-26T00:44:31;100625.72;;;10.04;87.82
64908;BME280;64365;-1.756;110.040;2023-03-26T00:46:58;100611.72;;;10.07;86.95
64908;BME280;64365;-1.756;110.040;2023-03-26T00:49:25;100604.81;;;9.99;87.99
64908;BME280;64365;-1.756;110.040;2023-03-26T00:51:53;100614.66;;;9.94;87.40
64908;BME280;64365;-1.756;110.040;2023-03-26T00:54:19;100604.72;;;9.91;88.27
64908;BME280;64365;-1.756;110.040;2023-03-26T00:56:46;100604.72;;;9.88;87.74
64908;BME280;64365;-1.756;110.040;2023-03-26T00:59:12;100612.31;;;9.89;90.25
64908;BME280;64365;-1.756;110.040;2023-03-26T01:01:39;100600.56;;;9.90;88.75
64908;BME280;64365;-1.756;110.040;2023-03-26T01:04:31;100606.50;;;9.80;87.77
64908;BME280;64365;-1.756;110.040;2023-03-26T01:07:02;100602.31;;;9.79;88.74
64908;BME280;64365;-1.756;110.040;2023-03-26T01:09:35;100604.97;;;9.79;89.42
64908;BME280;64365;-1.756;110.040;2023-03-26T01:12:05;100594.38;;;9.79;89.41
64908;BME280;64365;-1.756;110.040;2023-03-26T01:14:33;100592.06;;;9.77;88.54
64908;BME280;64365;-1.756;110.040;2023-03-26T01:17:03;100587.50;;;9.74;87.64
64908;BME280;64365;-1.756;110.040;2023-03-26T01:19:36;100591.63;;;9.72;88.26
64908;BME280;64365;-1.756;110.040;2023-03-26T01:22:06;100586.94;;;9.58;91.46
64908;BME280;64365;-1.756;110.040;2023-03-26T01:24:36;100579.44;;;9.67;88.54
64908;BME280;64365;-1.756;110.040;2023-03-26T01:27:19;100579.81;;;9.66;87.92
64908;BME280;64365;-1.756;110.040;2023-03-26T01:29:52;100573.75;;;9.65;88.40
64908;BME280;64365;-1.756;110.040;2023-03-26T01:32:47;100562.28;;;9.57;88.08
64908;BME280;64365;-1.756;110.040;2023-03-26T01:35:26;100556.59;;;9.55;88.60
64908;BME280;64365;-1.756;110.040;2023-03-26T01:38:04;100555.44;;;9.56;88.36
64908;BME280;64365;-1.756;110.040;2023-03-26T01:40:47;100551.28;;;9.55;88.15
64908;BME280;64365;-1.756;110.040;2023-03-26T01:43:21;100550.13;;;9.56;90.19
64908;BME280;64365;-1.756;110.040;2023-03-26T01:45:50;100540.69;;;9.59;89.97
64908;BME280;64365;-1.756;110.040;2023-03-26T01:48:17;100542.22;;;9.60;88.82
64908;BME280;64365;-1.756;110.040;2023-03-26T01:50:44;100528.56;;;9.58;88.89
64908;BME280;64365;-1.756;110.040;2023-03-26T01:53:13;100524.38;;;9.57;89.54
64908;BME280;64365;-1.756;110.040;2023-03-26T01:55:47;100531.56;;;9.56;88.71
64908;BME280;64365;-1.756;110.040;2023-03-26T01:58:26;100516.75;;;9.52;88.14
64908;BME280;64365;-1.756;110.040;2023-03-26T02:01:00;100515.19;;;9.47;87.85
64908;BME280;64365;-1.756;110.040;2023-03-26T02:03:35;100518.22;;;9.49;88.39
64908;BME280;64365;-1.756;110.040;2023-03-26T02:06:08;100509.47;;;9.45;89.46
64908;BME280;64365;-1.756;110.040;2023-03-26T02:08:41;100503.75;;;9.43;89.40
64908;BME280;64365;-1.756;110.040;2023-03-26T02:11:13;100514.34;;;9.43;89.70
64908;BME280;64365;-1.756;110.040;2023-03-26T02:13:42;100517.06;;;9.47;91.92
64908;BME280;64365;-1.756;110.040;2023-03-26T02:16:11;100512.56;;;9.51;92.29
64908;BME280;64365;-1.756;110.040;2023-03-26T02:18:41;100512.59;;;9.54;92.09
64908;BME280;64365;-1.756;110.040;2023-03-26T02:21:10;100522.84;;;9.56;90.55
64908;BME280;64365;-1.756;110.040;2023-03-26T02:23:39;100508.41;;;9.53;89.53
64908;BME280;64365;-1.756;110.040;2023-03-26T02:26:07;100501.19;;;9.50;89.54
64908;BME280;64365;-1.756;110.040;2023-03-26T02:28:35;100503.03;;;9.46;88.80
64908;BME280;64365;-1.756;110.040;2023-03-26T02:31:02;100504.56;;;9.47;88.84
64908;BME280;64365;-1.756;110.040;2023-03-26T02:33:30;100496.94;;;9.42;88.55
64908;BME280;64365;-1.756;110.040;2023-03-26T02:35:58;100488.63;;;9.43;88.51
64908;BME280;64365;-1.756;110.040;2023-03-26T02:38:26;100476.88;;;9.44;89.89
64908;BME280;64365;-1.756;110.040;2023-03-26T02:40:53;100480.72;;;9.47;90.13
64908;BME280;64365;-1.756;110.040;2023-03-26T02:43:20;100470.41;;;9.42;89.59
64908;BME280;64365;-1.756;110.040;2023-03-26T02:45:48;100473.09;;;9.46;89.44
64908;BME280;64365;-1.756;110.040;2023-03-26T02:48:14;100451.84;;;9.42;88.79
64908;BME280;64365;-1.756;110.040;2023-03-26T02:50:41;100468.56;;;9.46;88.46
64908;BME280;64365;-1.756;110.040;2023-03-26T02:53:08;100464.00;;;9.47;88.98
64908;BME280;64365;-1.756;110.040;2023-03-26T02:55:36;100470.53;;;9.53;90.80
64908;BME280;64365;-1.756;110.040;2023-03-26T02:58:02;100463.72;;;9.55;90.56
64908;BME280;64365;-1.756;110.040;2023-03-26T03:00:29;100469.44;;;9.57;89.83
64908;BME280;64365;-1.756;110.040;2023-03-26T03:02:57;100461.06;;;9.55;89.37
64908;BME280;64365;-1.756;110.040;2023-03-26T03:05:24;100457.28;;;9.56;89.79
64908;BME280;64365;-1.756;110.040;2023-03-26T03:07:51;100453.13;;;9.59;89.56
64908;BME280;64365;-1.756;110.040;2023-03-26T03:10:23;100457.31;;;9.60;89.33
64908;BME280;64365;-1.756;110.040;2023-03-26T03:12:50;100461.50;;;9.61;89.17
64908;BME280;64365;-1.756;110.040;2023-03-26T03:15:17;100462.94;;;9.55;88.62
64908;BME280;64365;-1.756;110.040;2023-03-26T03:17:43;100458.66;;;9.43;89.05
64908;BME280;64365;-1.756;110.040;2023-03-26T03:20:12;100453.00;;;9.44;89.34
64908;BME280;64365;-1.756;110.040;2023-03-26T03:22:40;100451.16;;;9.49;89.43
64908;BME280;64365;-1.756;110.040;2023-03-26T03:25:07;100443.19;;;9.49;90.44
64908;BME280;64365;-1.756;110.040;2023-03-26T03:27:39;100443.63;;;9.54;90.68
64908;BME280;64365;-1.756;110.040;2023-03-26T03:30:06;100437.59;;;9.57;89.85
64908;BME280;64365;-1.756;110.040;2023-03-26T03:32:33;100439.50;;;9.60;91.30
64908;BME280;64365;-1.756;110.040;2023-03-26T03:34:59;100422.50;;;9.65;91.62
64908;BME280;64365;-1.756;110.040;2023-03-26T03:37:27;100428.66;;;9.76;91.80
64908;BME280;64365;-1.756;110.040;2023-03-26T03:39:54;100428.69;;;9.80;91.15
64908;BME280;64365;-1.756;110.040;2023-03-26T03:42:20;100434.00;;;9.80;90.43
64908;BME280;64365;-1.756;110.040;2023-03-26T03:44:47;100422.22;;;9.77;90.13
64908;BME280;64365;-1.756;110.040;2023-03-26T03:47:14;100429.78;;;9.75;89.94
64908;BME280;64365;-1.756;110.040;2023-03-26T03:49:40;100419.94;;;9.76;90.34
64908;BME280;64365;-1.756;110.040;2023-03-26T03:52:07;100422.22;;;9.77;92.14
64908;BME280;64365;-1.756;110.040;2023-03-26T03:54:35;100424.94;;;9.85;92.45
64908;BME280;64365;-1.756;110.040;2023-03-26T03:57:01;100423.44;;;9.87;91.90
64908;BME280;64365;-1.756;110.040;2023-03-26T03:59:28;100424.97;;;9.88;92.71
64908;BME280;64365;-1.756;110.040;2023-03-26T04:01:54;100422.72;;;9.90;91.41
64908;BME280;64365;-1.756;110.040;2023-03-26T04:04:21;100416.63;;;9.90;90.58
64908;BME280;64365;-1.756;110.040;2023-03-26T04:06:50;100420.78;;;9.87;90.08
64908;BME280;64365;-1.756;110.040;2023-03-26T04:09:16;100411.28;;;9.86;90.58
64908;BME280;64365;-1.756;110.040;2023-03-26T04:11:44;100411.28;;;9.86;91.25
64908;BME280;64365;-1.756;110.040;2023-03-26T04:14:11;100413.59;;;9.91;91.16
64908;BME280;64365;-1.756;110.040;2023-03-26T04:16:37;100413.97;;;9.90;90.65
64908;BME280;64365;-1.756;110.040;2023-03-26T04:19:04;100412.13;;;9.94;90.58
64908;BME280;64365;-1.756;110.040;2023-03-26T04:21:31;100396.19;;;9.94;91.23
64908;BME280;64365;-1.756;110.040;2023-03-26T04:24:02;100397.31;;;9.93;90.63
64908;BME280;64365;-1.756;110.040;2023-03-26T04:26:30;100390.13;;;9.93;91.02
64908;BME280;64365;-1.756;110.040;2023-03-26T04:29:00;100384.03;;;9.89;90.41
64908;BME280;64365;-1.756;110.040;2023-03-26T04:31:29;100370.00;;;9.92;89.88
64908;BME280;64365;-1.756;110.040;2023-03-26T04:33:58;100362.00;;;9.85;90.37
64908;BME280;64365;-1.756;110.040;2023-03-26T04:36:29;100369.91;;;9.78;90.93
64908;BME280;64365;-1.756;110.040;2023-03-26T04:38:59;100363.53;;;9.90;91.26
64908;BME280;64365;-1.756;110.040;2023-03-26T04:41:29;100356.38;;;9.94;90.90
64908;BME280;64365;-1.756;110.040;2023-03-26T04:43:57;100359.03;;;9.94;90.40
64908;BME280;64365;-1.756;110.040;2023-03-26T04:46:26;100359.38;;;9.92;90.00
64908;BME280;64365;-1.756;110.040;2023-03-26T04:48:53;100358.66;;;9.95;89.73
64908;BME280;64365;-1.756;110.040;2023-03-26T04:51:24;100354.09;;;9.92;89.85
64908;BME280;64365;-1.756;110.040;2023-03-26T04:53:52;100355.59;;;9.90;89.92
64908;BME280;64365;-1.756;110.040;2023-03-26T04:56:28;100355.94;;;9.88;90.21
64908;BME280;64365;-1.756;110.040;2023-03-26T04:59:00;100343.06;;;9.87;89.93
64908;BME280;64365;-1.756;110.040;2023-03-26T05:01:27;100343.03;;;9.83;90.15
64908;BME280;64365;-1.756;110.040;2023-03-26T05:03:55;100337.34;;;9.85;90.33
64908;BME280;64365;-1.756;110.040;2023-03-26T05:06:23;100329.38;;;9.85;90.32
64908;BME280;64365;-1.756;110.040;2023-03-26T05:08:52;100327.88;;;9.87;90.24
64908;BME280;64365;-1.756;110.040;2023-03-26T05:11:18;100332.44;;;9.87;90.61
64908;BME280;64365;-1.756;110.040;2023-03-26T05:13:45;100328.63;;;9.84;90.80
64908;BME280;64365;-1.756;110.040;2023-03-26T05:16:13;100317.97;;;9.81;90.44
64908;BME280;64365;-1.756;110.040;2023-03-26T05:18:40;100318.34;;;9.79;90.58
64908;BME280;64365;-1.756;110.040;2023-03-26T05:21:06;100324.44;;;9.83;90.62
64908;BME280;64365;-1.756;110.040;2023-03-26T05:23:33;100324.06;;;9.81;90.21
64908;BME280;64365;-1.756;110.040;2023-03-26T05:26:00;100322.56;;;9.87;90.84
64908;BME280;64365;-1.756;110.040;2023-03-26T05:28:27;100313.88;;;9.90;92.01
64908;BME280;64365;-1.756;110.040;2023-03-26T05:30:53;100313.13;;;9.93;91.99
64908;BME280;64365;-1.756;110.040;2023-03-26T05:33:21;100311.63;;;9.92;91.07
64908;BME280;64365;-1.756;110.040;2023-03-26T05:35:58;100313.88;;;9.90;90.43
64908;BME280;64365;-1.756;110.040;2023-03-26T05:38:25;100313.13;;;9.90;90.89
64908;BME280;64365;-1.756;110.040;2023-03-26T05:40:56;100305.53;;;9.88;90.44
64908;BME280;64365;-1.756;110.040;2023-03-26T05:43:23;100294.91;;;9.88;90.96
64908;BME280;64365;-1.756;110.040;2023-03-26T05:45:50;100298.31;;;9.89;90.65
64908;BME280;64365;-1.756;110.040;2023-03-26T05:48:17;100297.16;;;9.86;90.69
64908;BME280;64365;-1.756;110.040;2023-03-26T05:50:46;100303.66;;;9.92;90.95
64908;BME280;64365;-1.756;110.040;2023-03-26T05:53:16;100296.06;;;9.91;90.67
64908;BME280;64365;-1.756;110.040;2023-03-26T05:55:44;100297.59;;;9.95;91.25
64908;BME280;64365;-1.756;110.040;2023-03-26T05:58:11;100286.59;;;9.93;91.13
64908;BME280;64365;-1.756;110.040;2023-03-26T06:00:38;100289.63;;;9.95;91.85
64908;BME280;64365;-1.756;110.040;2023-03-26T06:03:06;100290.78;;;9.98;93.17
64908;BME280;64365;-1.756;110.040;2023-03-26T06:05:38;100290.81;;;10.02;92.93
64908;BME280;64365;-1.756;110.040;2023-03-26T06:08:06;100286.25;;;10.02;92.79
64908;BME280;64365;-1.756;110.040;2023-03-26T06:10:36;100284.75;;;10.05;92.87
64908;BME280;64365;-1.756;110.040;2023-03-26T06:13:02;100279.13;;;10.14;92.37
64908;BME280;64365;-1.756;110.040;2023-03-26T06:15:29;100268.50;;;10.14;92.44
64908;BME280;64365;-1.756;110.040;2023-03-26T06:17:56;100268.88;;;10.19;92.48
64908;BME280;64365;-1.756;110.040;2023-03-26T06:20:22;100270.41;;;10.20;91.85
64908;BME280;64365;-1.756;110.040;2023-03-26T06:22:49;100264.34;;;10.20;91.41
64908;BME280;64365;-1.756;110.040;2023-03-26T06:25:17;100272.69;;;10.25;91.01
64908;BME280;64365;-1.756;110.040;2023-03-26T06:27:44;100261.31;;;10.25;91.03
64908;BME280;64365;-1.756;110.040;2023-03-26T06:30:11;100256.00;;;10.25;90.69
64908;BME280;64365;-1.756;110.040;2023-03-26T06:32:38;100251.09;;;10.27;90.16
64908;BME280;64365;-1.756;110.040;2023-03-26T06:35:05;100254.50;;;10.27;90.53
64908;BME280;64365;-1.756;110.040;2023-03-26T06:37:31;100236.25;;;10.15;90.04
64908;BME280;64365;-1.756;110.040;2023-03-26T06:39:58;100253.38;;;10.28;90.51
64908;BME280;64365;-1.756;110.040;2023-03-26T06:42:26;100255.63;;;10.26;90.20
64908;BME280;64365;-1.756;110.040;2023-03-26T06:44:53;100244.63;;;10.28;90.52
64908;BME280;64365;-1.756;110.040;2023-03-26T06:47:19;100250.72;;;10.28;91.29
64908;BME280;64365;-1.756;110.040;2023-03-26T06:49:46;100247.31;;;10.32;90.82
64908;BME280;64365;-1.756;110.040;2023-03-26T06:52:12;100259.47;;;10.33;90.42
64908;BME280;64365;-1.756;110.040;2023-03-26T06:54:39;100255.25;;;10.28;90.90
64908;BME280;64365;-1.756;110.040;2023-03-26T06:57:06;100252.59;;;10.24;90.76
64908;BME280;64365;-1.756;110.040;2023-03-26T06:59:33;100255.25;;;10.28;90.37
64908;BME280;64365;-1.756;110.040;2023-03-26T07:02:00;100258.28;;;10.26;90.11
64908;BME280;64365;-1.756;110.040;2023-03-26T07:04:27;100260.94;;;10.23;90.82
64908;BME280;64365;-1.756;110.040;2023-03-26T07:06:53;100257.16;;;10.20;91.09
64908;BME280;64365;-1.756;110.040;2023-03-26T07:09:20;100256.75;;;10.18;91.78
64908;BME280;64365;-1.756;110.040;2023-03-26T07:11:47;100257.13;;;10.24;91.69
64908;BME280;64365;-1.756;110.040;2023-03-26T07:14:13;100255.63;;;10.23;91.65
64908;BME280;64365;-1.756;110.040;2023-03-26T07:16:41;100256.00;;;10.21;91.34
64908;BME280;64365;-1.756;110.040;2023-03-26T07:19:08;100256.00;;;10.21;91.13
64908;BME280;64365;-1.756;110.040;2023-03-26T07:21:35;100260.56;;;10.21;91.35
64908;BME280;64365;-1.756;110.040;2023-03-26T07:24:02;100257.50;;;10.22;90.73
64908;BME280;64365;-1.756;110.040;2023-03-26T07:26:33;100252.97;;;10.19;90.89
64908;BME280;64365;-1.756;110.040;2023-03-26T07:29:08;100253.72;;;10.20;91.97
64908;BME280;64365;-1.756;110.040;2023-03-26T07:31:43;100250.31;;;10.23;90.63
64908;BME280;64365;-1.756;110.040;2023-03-26T07:34:25;100256.00;;;10.21;91.18
64908;BME280;64365;-1.756;110.040;2023-03-26T07:37:00;100249.94;;;10.21;92.04
64908;BME280;64365;-1.756;110.040;2023-03-26T07:39:38;100244.25;;;10.22;91.10
64908;BME280;64365;-1.756;110.040;2023-03-26T07:42:19;100252.22;;;10.29;90.46
64908;BME280;64365;-1.756;110.040;2023-03-26T07:44:55;100248.03;;;10.25;90.12
64908;BME280;64365;-1.756;110.040;2023-03-26T07:47:27;100252.97;;;10.26;89.51
64908;BME280;64365;-1.756;110.040;2023-03-26T07:49:56;100246.13;;;10.25;89.57
64908;BME280;64365;-1.756;110.040;2023-03-26T07:52:23;100252.97;;;10.26;89.20
64908;BME280;64365;-1.756;110.040;2023-03-26T07:54:50;100240.09;;;10.28;89.87
64908;BME280;64365;-1.756;110.040;2023-03-26T07:57:22;100229.47;;;10.28;90.18
64908;BME280;64365;-1.756;110.040;2023-03-26T07:59:56;100238.22;;;10.33;89.43
64908;BME280;64365;-1.756;110.040;2023-03-26T08:02:43;100237.88;;;10.38;88.55
64908;BME280;64365;-1.756;110.040;2023-03-26T08:05:19;100246.97;;;10.37;88.32
64908;BME280;64365;-1.756;110.040;2023-03-26T08:08:04;100249.59;;;10.33;88.26
64908;BME280;64365;-1.756;110.040;2023-03-26T08:10:37;100242.78;;;10.36;87.80
64908;BME280;64365;-1.756;110.040;2023-03-26T08:13:21;100242.75;;;10.32;87.10
64908;BME280;64365;-1.756;110.040;2023-03-26T08:15:57;100240.47;;;10.31;87.65
64908;BME280;64365;-1.756;110.040;2023-03-26T08:18:38;100238.56;;;10.27;87.02
64908;BME280;64365;-1.756;110.040;2023-03-26T08:21:09;100248.06;;;10.28;87.38
64908;BME280;64365;-1.756;110.040;2023-03-26T08:23:41;100242.00;;;10.32;87.18
64908;BME280;64365;-1.756;110.040;2023-03-26T08:26:26;100240.09;;;10.32;87.90
64908;BME280;64365;-1.756;110.040;2023-03-26T08:29:00;100244.69;;;10.39;88.60
64908;BME280;64365;-1.756;110.040;2023-03-26T08:31:31;100248.53;;;10.45;87.55
64908;BME280;64365;-1.756;110.040;2023-03-26T08:34:00;100248.53;;;10.45;87.38
64908;BME280;64365;-1.756;110.040;2023-03-26T08:36:27;100248.13;;;10.43;86.74
64908;BME280;64365;-1.756;110.040;2023-03-26T08:38:54;100238.66;;;10.42;86.61
64908;BME280;64365;-1.756;110.040;2023-03-26T08:47:34;100245.47;;;10.43;86.22
64908;BME280;64365;-1.756;110.040;2023-03-26T08:50:29;100252.31;;;10.44;86.16
64908;BME280;64365;-1.756;110.040;2023-03-26T08:56:07;100254.94;;;10.37;85.63
64908;BME280;64365;-1.756;110.040;2023-03-26T08:58:56;100244.66;;;10.32;85.87
64908;BME280;64365;-1.756;110.040;2023-03-26T09:04:45;100249.53;;;10.22;84.91
64908;BME280;64365;-1.756;110.040;2023-03-26T09:07:53;100252.22;;;10.22;86.34
64908;BME280;64365;-1.756;110.040;2023-03-26T09:11:05;100253.72;;;10.23;86.29
64908;BME280;64365;-1.756;110.040;2023-03-26T09:14:05;100258.28;;;10.23;86.71
64908;BME280;64365;-1.756;110.040;2023-03-26T09:19:54;100250.72;;;10.32;87.04
64908;BME280;64365;-1.756;110.040;2023-03-26T09:23:15;100252.28;;;10.37;86.09
64908;BME280;64365;-1.756;110.040;2023-03-26T09:25:56;100258.34;;;10.37;86.96
64908;BME280;64365;-1.756;110.040;2023-03-26T09:29:02;100253.44;;;10.39;86.44
64908;BME280;64365;-1.756;110.040;2023-03-26T09:37:55;100263.66;;;10.37;87.55
64908;BME280;64365;-1.756;110.040;2023-03-26T09:40:31;100262.16;;;10.40;86.88
64908;BME280;64365;-1.756;110.040;2023-03-26T09:43:20;100254.97;;;10.44;86.72
64908;BME280;64365;-1.756;110.040;2023-03-26T09:45:59;100259.91;;;10.42;86.37
64908;BME280;64365;-1.756;110.040;2023-03-26T09:52:01;100263.69;;;10.41;85.51
64908;BME280;64365;-1.756;110.040;2023-03-26T09:54:48;100244.63;;;10.24;85.16
64908;BME280;64365;-1.756;110.040;2023-03-26T09:57:27;100271.63;;;10.34;85.23
64908;BME280;64365;-1.756;110.040;2023-03-26T10:00:02;100272.00;;;10.36;85.15
64908;BME280;64365;-1.756;110.040;2023-03-26T10:02:51;100270.84;;;10.33;85.83
64908;BME280;64365;-1.756;110.040;2023-03-26T10:05:34;100278.84;;;10.37;85.48
64908;BME280;64365;-1.756;110.040;2023-03-26T10:08:22;100279.22;;;10.39;84.84
64908;BME280;64365;-1.756;110.040;2023-03-26T10:10:55;100273.94;;;10.42;86.24
64908;BME280;64365;-1.756;110.040;2023-03-26T10:13:28;100278.50;;;10.49;85.47
64908;BME280;64365;-1.756;110.040;2023-03-26T10:16:14;100284.94;;;10.48;86.27
64908;BME280;64365;-1.756;110.040;2023-03-26T10:18:54;100281.94;;;10.60;85.31
64908;BME280;64365;-1.756;110.040;2023-03-26T10:21:31;100273.59;;;10.58;84.08
64908;BME280;64365;-1.756;110.040;2023-03-26T10:27:22;100286.13;;;10.61;82.22
64908;BME280;64365;-1.756;110.040;2023-03-26T10:30:04;100289.16;;;10.60;82.08
64908;BME280;64365;-1.756;110.040;2023-03-26T10:32:37;100290.31;;;10.59;81.87
64908;BME280;64365;-1.756;110.040;2023-03-26T10:35:20;100296.72;;;10.51;82.63
64908;BME280;64365;-1.756;110.040;2023-03-26T10:38:00;100298.63;;;10.54;82.72
64908;BME280;64365;-1.756;110.040;2023-03-26T10:40:35;100291.03;;;10.52;82.37
64908;BME280;64365;-1.756;110.040;2023-03-26T10:43:26;100311.56;;;10.55;82.83
64908;BME280;64365;-1.756;110.040;2023-03-26T10:46:17;100310.41;;;10.53;82.88
64908;BME280;64365;-1.756;110.040;2023-03-26T10:49:05;100309.25;;;10.54;83.02
64908;BME280;64365;-1.756;110.040;2023-03-26T10:51:45;100310.41;;;10.56;82.23
64908;BME280;64365;-1.756;110.040;2023-03-26T10:54:22;100309.25;;;10.50;81.63
64908;BME280;64365;-1.756;110.040;2023-03-26T10:56:53;100316.09;;;10.55;82.19
64908;BME280;64365;-1.756;110.040;2023-03-26T10:59:21;100312.28;;;10.52;81.12
64908;BME280;64365;-1.756;110.040;2023-03-26T11:01:56;100323.28;;;10.47;81.04
64908;BME280;64365;-1.756;110.040;2023-03-26T11:04:35;100315.69;;;10.42;81.85
64908;BME280;64365;-1.756;110.040;2023-03-26T11:07:16;100328.97;;;10.45;81.11
64908;BME280;64365;-1.756;110.040;2023-03-26T11:09:52;100327.47;;;10.52;80.88
64908;BME280;64365;-1.756;110.040;2023-03-26T11:12:28;100329.41;;;10.58;81.74
64908;BME280;64365;-1.756;110.040;2023-03-26T11:15:10;100335.13;;;10.64;81.33
64908;BME280;64365;-1.756;110.040;2023-03-26T11:17:50;100342.69;;;10.62;79.17
64908;BME280;64365;-1.756;110.040;2023-03-26T11:20:29;100332.44;;;10.60;78.58
64908;BME280;64365;-1.756;110.040;2023-03-26T11:23:07;100324.47;;;10.60;78.89
64908;BME280;64365;-1.756;110.040;2023-03-26T11:28:36;100340.06;;;10.69;80.38
64908;BME280;64365;-1.756;110.040;2023-03-26T11:31:13;100338.59;;;10.83;79.80
64908;BME280;64365;-1.756;110.040;2023-03-26T11:33:47;100338.63;;;10.93;78.94
64908;BME280;64365;-1.756;110.040;2023-03-26T11:36:16;100348.88;;;10.99;78.86
64908;BME280;64365;-1.756;110.040;2023-03-26T11:38:46;100339.78;;;11.07;76.79
64908;BME280;64365;-1.756;110.040;2023-03-26T11:41:14;100353.84;;;11.15;77.13
64908;BME280;64365;-1.756;110.040;2023-03-26T11:43:44;100350.06;;;11.23;75.98
64908;BME280;64365;-1.756;110.040;2023-03-26T11:46:16;100355.78;;;11.36;76.74
64908;BME280;64365;-1.756;110.040;2023-03-26T11:48:47;100344.00;;;11.48;75.28
64908;BME280;64365;-1.756;110.040;2023-03-26T11:51:17;100351.97;;;11.51;74.09
64908;BME280;64365;-1.756;110.040;2023-03-26T11:53:47;100351.22;;;11.61;73.51
64908;BME280;64365;-1.756;110.040;2023-03-26T11:56:19;100354.63;;;11.80;73.46
64908;BME280;64365;-1.756;110.040;2023-03-26T11:58:52;100350.44;;;11.86;73.19
64908;BME280;64365;-1.756;110.040;2023-03-26T12:01:24;100349.66;;;11.93;71.63
64908;BME280;64365;-1.756;110.040;2023-03-26T12:03:58;100354.97;;;11.93;70.99
64908;BME280;64365;-1.756;110.040;2023-03-26T12:06:28;100350.81;;;11.95;71.72
64908;BME280;64365;-1.756;110.040;2023-03-26T12:08:57;100346.63;;;12.05;72.31
64908;BME280;64365;-1.756;110.040;2023-03-26T12:11:25;100367.91;;;12.16;72.06
64908;BME280;64365;-1.756;110.040;2023-03-26T12:13:57;100365.22;;;12.27;70.42
64908;BME280;64365;-1.756;110.040;2023-03-26T12:16:25;100370.94;;;12.29;70.06
64908;BME280;64365;-1.756;110.040;2023-03-26T12:19:02;100373.19;;;12.30;68.62
64908;BME280;64365;-1.756;110.040;2023-03-26T12:21:43;100372.44;;;12.26;69.92
64908;BME280;64365;-1.756;110.040;2023-03-26T12:24:24;100369.78;;;12.30;71.01
64908;BME280;64365;-1.756;110.040;2023-03-26T12:26:56;100375.84;;;12.38;69.58
64908;BME280;64365;-1.756;110.040;2023-03-26T12:29:26;100381.16;;;12.41;69.41
64908;BME280;64365;-1.756;110.040;2023-03-26T12:31:56;100376.97;;;12.44;65.60
64908;BME280;64365;-1.756;110.040;2023-03-26T12:34:28;100384.59;;;12.38;67.93
64908;BME280;64365;-1.756;110.040;2023-03-26T12:36:58;100389.16;;;12.45;66.82
64908;BME280;64365;-1.756;110.040;2023-03-26T12:39:36;100389.91;;;12.45;66.46
64908;BME280;64365;-1.756;110.040;2023-03-26T12:42:05;100394.47;;;12.49;67.21
64908;BME280;64365;-1.756;110.040;2023-03-26T12:44:43;100395.97;;;12.50;65.02
64908;BME280;64365;-1.756;110.040;2023-03-26T12:47:17;100404.38;;;12.48;65.54
64908;BME280;64365;-1.756;110.040;2023-03-26T12:49:46;100407.06;;;12.37;65.55
64908;BME280;64365;-1.756;110.040;2023-03-26T12:52:25;100395.28;;;12.31;65.48
64908;BME280;64365;-1.756;110.040;2023-03-26T12:55:00;100405.94;;;12.31;65.30
64908;BME280;64365;-1.756;110.040;2023-03-26T12:57:32;100394.91;;;12.29;64.82
64908;BME280;64365;-1.756;110.040;2023-03-26T13:00:18;100403.25;;;12.35;64.74
64908;BME280;64365;-1.756;110.040;2023-03-26T13:05:57;100417.72;;;12.41;63.87
64908;BME280;64365;-1.756;110.040;2023-03-26T13:08:52;100418.47;;;12.45;62.22
64908;BME280;64365;-1.756;110.040;2023-03-26T13:11:29;100419.97;;;12.46;62.72
64908;BME280;64365;-1.756;110.040;2023-03-26T13:14:07;100421.13;;;12.41;61.06
64908;BME280;64365;-1.756;110.040;2023-03-26T13:16:44;100431.81;;;12.45;63.71
64908;BME280;64365;-1.756;110.040;2023-03-26T13:19:14;100426.44;;;12.49;62.27
64908;BME280;64365;-1.756;110.040;2023-03-26T13:21:55;100437.88;;;12.42;62.24
64908;BME280;64365;-1.756;110.040;2023-03-26T13:24:31;100429.91;;;12.38;63.30
64908;BME280;64365;-1.756;110.040;2023-03-26T13:27:10;100434.47;;;12.38;63.01
64908;BME280;64365;-1.756;110.040;2023-03-26T13:29:46;100442.47;;;12.45;64.34
64908;BME280;64365;-1.756;110.040;2023-03-26T13:32:27;100442.44;;;12.52;64.05